This is the latest recevied weather packets stored in our database for station/object KE5QKR. If no packets are shown the sender has not sent any weather packets the latest 10 day(s).
| Time | Temp. | Humidity | Pressure | Rain* | Wind** | Luminosity | Snow |
|---|---|---|---|---|---|---|---|
| 1777989072 | 22.78° C | 82% | 1012.2 hPa | 0 mm | - | 351 W/m² | - |
| 1777988768 | 22.22° C | 83% | 1012.1 hPa | 0 mm | - | 317 W/m² | - |
| 1777988465 | 21.67° C | 83% | 1012.2 hPa | 0 mm | - | 272 W/m² | - |
| 1777988162 | 20.56° C | 87% | 1011.9 hPa | 0 mm | - | 287 W/m² | - |
| 1777987858 | 19.44° C | 91% | 1012.2 hPa | 0 mm | - | 227 W/m² | - |
| 1777987554 | 18.89° C | 95% | 1012.1 hPa | 0 mm | - | 228 W/m² | - |
| 1777987252 | 18.33° C | 99% | 1012 hPa | 0 mm | - | 220 W/m² | - |
| 1777986949 | 17.78° C | 99% | 1012.2 hPa | 0 mm | - | 156 W/m² | - |
| 1777986647 | 17.22° C | 99% | 1012 hPa | 0 mm | - | 143 W/m² | - |
| 1777986344 | 16.67° C | 99% | 1012.2 hPa | 0 mm | - | 129 W/m² | - |
| 1777986043 | 16.67° C | 99% | 1012.2 hPa | 0 mm | - | 107 W/m² | - |
| 1777985739 | 16.11° C | 99% | 1012.1 hPa | 0 mm | - | 96 W/m² | - |
| 1777985436 | 16.11° C | 99% | 1012.4 hPa | 0 mm | - | 90 W/m² | - |
| 1777985132 | 15.56° C | 99% | 1012.1 hPa | 0 mm | - | 90 W/m² | - |
| 1777984829 | 15.56° C | 99% | 1012.1 hPa | 0 mm | - | 92 W/m² | - |
| 1777984525 | 15° C | 99% | 1011.9 hPa | 0 mm | - | 80 W/m² | - |
| 1777984221 | 15° C | 99% | 1012 hPa | 0 mm | - | 72 W/m² | - |
| 1777983919 | 14.44° C | 99% | 1011.9 hPa | 0 mm | - | 72 W/m² | - |
| 1777983615 | 14.44° C | 99% | 1012 hPa | 0 mm | - | 70 W/m² | - |
| 1777983312 | 13.89° C | 99% | 1012 hPa | 0 mm | - | 63 W/m² | - |
| 1777983009 | 13.89° C | 99% | 1011.9 hPa | 0 mm | - | 51 W/m² | - |
| 1777982705 | 13.33° C | 99% | 1011.9 hPa | 0 mm | - | 41 W/m² | - |
| 1777982405 | 13.33° C | 99% | 1012 hPa | 0 mm | - | 33 W/m² | - |
| 1777982100 | 12.78° C | 99% | 1011.9 hPa | 0 mm | - | 27 W/m² | - |
| 1777981799 | 12.78° C | 99% | 1012 hPa | 0 mm | - | 23 W/m² | - |
* Rain latest hour (hover to see other rain measurements)
** Current wind speed in m/s (hover to see current wind gust speed)